Time;durP1;ratioP1;P1;durP2;ratioP2;P2;SDS_P1;SDS_P2;PMS_P1;PMS_P2;Temp;Humidity;BMP_temperature;BMP_pressure;BME280_temperature;BME280_humidity;BME280_pressure;Samples;Min_cycle;Max_cycle;Signal;HPM_P1;HPM_P2
2021/11/02 09:33:32;;;;;;;1.88;1.77;;;8.60;99.90;;;;;;5070628;28;20572;-83
2021/11/02 09:36:04;;;;;;;2.60;2.33;;;9.90;99.90;;;;;;5069383;28;20203;-83
2021/11/02 09:38:59;;;;;;;1.80;1.70;;;8.70;99.90;;;;;;5069368;28;20169;-83
2021/11/02 09:41:44;;;;;;;2.42;1.90;;;8.80;99.90;;;;;;5070607;28;20267;-83
2021/11/02 09:44:29;;;;;;;2.08;1.83;;;8.80;99.90;;;;;;5069162;28;20649;-83
2021/11/02 09:47:01;;;;;;;2.92;1.65;;;8.80;99.90;;;;;;5069152;28;20226;-83
2021/11/02 09:49:47;;;;;;;1.65;1.58;;;8.90;99.90;;;;;;5070357;28;20176;-83
2021/11/02 09:52:16;;;;;;;4.50;1.90;;;8.90;99.90;;;;;;5069003;28;20195;-83
2021/11/02 09:55:23;;;;;;;1.60;1.60;;;9.30;99.90;;;;;;5070274;28;20172;-83
2021/11/02 09:58:10;;;;;;;1.90;1.80;;;9.00;99.90;;;;;;5046480;28;20176;-84
2021/11/02 10:00:46;;;;;;;3.33;1.65;;;9.10;99.90;;;;;;5070183;28;20165;-84
2021/11/02 10:03:31;;;;;;;3.78;1.70;;;9.00;99.90;;;;;;5070018;28;20196;-83
2021/11/02 10:06:25;;;;;;;2.10;2.00;;;9.10;99.90;;;;;;5050401;28;20252;-83
2021/11/02 10:09:03;;;;;;;2.42;2.15;;;9.10;99.90;;;;;;5048869;28;20205;-83
2021/11/02 10:12:13;;;;;;;2.35;1.70;;;9.10;99.90;;;;;;5048726;28;20176;-83
2021/11/02 10:15:02;;;;;;;3.13;1.67;;;9.20;99.90;;;;;;5038415;28;20234;-83
2021/11/02 10:17:57;;;;;;;4.13;1.73;;;9.20;99.90;;;;;;5048699;28;20674;-84
2021/11/02 10:20:45;;;;;;;5.03;1.80;;;9.20;99.90;;;;;;5049775;28;20689;-83
2021/11/02 10:23:49;;;;;;;1.60;1.50;;;9.20;99.90;;;;;;5048601;28;20200;-84
2021/11/02 10:26:47;;;;;;;1.77;1.67;;;9.20;99.90;;;;;;5049829;28;20161;-83
2021/11/02 10:29:34;;;;;;;2.50;1.77;;;9.30;99.90;;;;;;5042108;28;20265;-83
2021/11/02 10:32:06;;;;;;;1.95;1.88;;;9.30;99.90;;;;;;5049543;28;20224;-83
2021/11/02 10:34:50;;;;;;;2.92;1.83;;;9.40;99.90;;;;;;5049647;28;20252;-83
2021/11/02 10:37:47;;;;;;;1.63;1.52;;;9.40;99.90;;;;;;5048466;28;20180;-83
2021/11/02 10:40:25;;;;;;;2.10;2.00;;;9.60;99.90;;;;;;5048290;28;20173;-83
2021/11/02 10:42:59;;;;;;;3.13;1.80;;;9.60;99.90;;;;;;5045048;28;20705;-83
2021/11/02 10:45:29;;;;;;;1.70;1.60;;;9.70;99.90;;;;;;5035082;28;20170;-83
2021/11/02 10:48:06;;;;;;;6.43;1.52;;;11.00;99.90;;;;;;5036113;28;20174;-84
2021/11/02 10:50:37;;;;;;;3.17;1.67;;;9.90;99.90;;;;;;5036070;28;20253;-83
2021/11/02 10:53:07;;;;;;;1.58;1.48;;;10.10;99.90;;;;;;5034715;28;20243;-83
2021/11/02 10:56:18;;;;;;;1.45;1.42;;;10.10;99.90;;;;;;5034988;28;20204;-84
2021/11/02 10:58:53;;;;;;;1.55;1.48;;;10.10;99.90;;;;;;5035991;28;20196;-84
2021/11/02 11:01:22;;;;;;;2.50;1.50;;;11.00;99.90;;;;;;5034515;28;20170;-83
2021/11/02 11:03:48;;;;;;;1.23;1.23;;;10.00;99.90;;;;;;5034819;28;20221;-84
2021/11/02 11:06:15;;;;;;;1.48;1.38;;;9.90;99.90;;;;;;5034681;28;20169;-83
2021/11/02 11:08:47;;;;;;;5.00;1.58;;;10.80;99.90;;;;;;5035696;28;20252;-84
2021/11/02 11:11:17;;;;;;;1.98;1.73;;;11.20;99.90;;;;;;5034470;28;20170;-83
2021/11/02 11:13:48;;;;;;;2.83;1.40;;;10.20;99.90;;;;;;5035572;28;20641;-83
2021/11/02 11:16:17;;;;;;;1.58;1.48;;;9.80;99.90;;;;;;5035622;28;20170;-84
2021/11/02 11:19:24;;;;;;;2.05;1.48;;;9.90;99.90;;;;;;5034500;28;20173;-84
2021/11/02 11:21:51;;;;;;;1.55;1.45;;;9.90;99.90;;;;;;5002160;28;20217;-83
2021/11/02 11:24:41;;;;;;;2.58;1.40;;;10.00;99.90;;;;;;5034311;28;20170;-84
2021/11/02 11:27:09;;;;;;;2.15;2.05;;;10.10;99.90;;;;;;5035424;28;20181;-84
2021/11/02 11:29:43;;;;;;;1.80;1.50;;;10.90;99.90;;;;;;5034215;28;20181;-84
2021/11/02 11:32:10;;;;;;;2.50;1.60;;;10.20;99.90;;;;;;5034016;28;20217;-84
2021/11/02 11:34:41;;;;;;;1.50;1.40;;;10.30;99.90;;;;;;5034024;28;20166;-84
2021/11/02 11:37:11;;;;;;;2.13;1.50;;;11.00;99.90;;;;;;5034007;28;20253;-84
2021/11/02 11:39:37;;;;;;;5.88;1.70;;;11.40;99.90;;;;;;5034163;28;20257;-84
2021/11/02 11:42:03;;;;;;;1.35;1.35;;;10.40;99.90;;;;;;5033978;28;20205;-84
2021/11/02 11:44:30;;;;;;;1.30;1.30;;;10.30;99.90;;;;;;5035059;28;20166;-84
2021/11/02 11:47:08;;;;;;;2.33;1.55;;;11.10;99.90;;;;;;5033699;28;20511;-84
2021/11/02 11:49:37;;;;;;;2.20;2.10;;;10.20;99.90;;;;;;5035043;28;20169;-85
2021/11/02 11:52:05;;;;;;;2.03;1.85;;;10.20;99.90;;;;;;5033658;28;20588;-84
2021/11/02 11:54:46;;;;;;;1.58;1.40;;;10.10;99.90;;;;;;5034496;28;20559;-84
2021/11/02 11:57:36;;;;;;;1.70;1.60;;;10.10;99.90;;;;;;5033283;28;20610;-84
2021/11/02 12:00:10;;;;;;;1.42;1.33;;;10.00;99.90;;;;;;5034944;28;20173;-83
2021/11/02 12:02:57;;;;;;;2.47;2.30;;;9.90;99.90;;;;;;5033428;28;20205;-83
2021/11/02 12:05:24;;;;;;;2.88;1.90;;;9.80;99.90;;;;;;5034585;28;20190;-83
2021/11/02 12:08:07;;;;;;;2.10;2.00;;;10.10;99.90;;;;;;5034538;28;20194;-83
2021/11/02 12:10:33;;;;;;;2.00;1.90;;;9.80;99.90;;;;;;5034568;28;20162;-83
2021/11/02 12:13:04;;;;;;;3.90;1.50;;;11.20;99.90;;;;;;5034528;28;20187;-83
2021/11/02 12:15:42;;;;;;;0.90;0.90;;;10.70;99.90;;;;;;5034505;28;20261;-84
2021/11/02 12:18:10;;;;;;;1.48;1.20;;;10.10;99.90;;;;;;5034343;28;20220;-83
2021/11/02 12:20:42;;;;;;;3.05;1.80;;;10.10;99.90;;;;;;5034653;28;20174;-84
2021/11/02 12:23:30;;;;;;;1.70;1.60;;;9.20;99.90;;;;;;5032970;28;20197;-84
2021/11/02 12:25:56;;;;;;;1.40;1.40;;;10.40;99.90;;;;;;5033003;28;20170;-84
2021/11/02 12:28:30;;;;;;;3.90;1.65;;;11.70;99.90;;;;;;5032868;28;20169;-84
2021/11/02 12:31:07;;;;;;;5.22;1.63;;;12.00;99.90;;;;;;5034129;28;20173;-83
2021/11/02 12:33:35;;;;;;;1.60;1.50;;;10.70;99.90;;;;;;5032964;28;20194;-83
2021/11/02 12:36:04;;;;;;;1.23;1.23;;;11.70;99.90;;;;;;5032764;28;20170;-84
2021/11/02 12:39:11;;;;;;;;;;;;;;;;;;;;;
2021/11/02 12:41:48;;;;;;;1.75;1.65;;;11.60;99.90;;;;;;5033810;28;20209;-84
2021/11/02 12:44:17;;;;;;;2.22;1.73;;;11.20;99.90;;;;;;5032635;28;20236;-84
2021/11/02 12:46:46;;;;;;;2.03;1.92;;;11.20;99.90;;;;;;5033844;28;20227;-84
2021/11/02 12:49:48;;;;;;;2.25;1.40;;;10.90;99.90;;;;;;5033780;28;20627;-84
2021/11/02 12:52:15;;;;;;;1.73;1.48;;;10.90;99.90;;;;;;5030556;28;20263;-84
2021/11/02 12:54:44;;;;;;;1.30;1.30;;;11.10;99.90;;;;;;5033704;28;20620;-84
2021/11/02 12:57:16;;;;;;;1.40;1.40;;;11.30;99.90;;;;;;5033603;28;20177;-84
2021/11/02 12:59:52;;;;;;;3.20;2.08;;;10.90;99.90;;;;;;5033655;28;20220;-84
2021/11/02 13:02:21;;;;;;;1.98;1.70;;;10.90;99.90;;;;;;5033874;28;20169;-84
2021/11/02 13:05:02;;;;;;;2.55;1.70;;;11.30;99.90;;;;;;5033743;28;20186;-84
2021/11/02 13:07:35;;;;;;;1.60;1.60;;;10.90;99.90;;;;;;5033357;28;20634;-84
2021/11/02 13:10:02;;;;;;;1.95;1.80;;;11.90;99.90;;;;;;5032378;28;20868;-84
2021/11/02 13:12:29;;;;;;;1.90;1.80;;;11.00;99.90;;;;;;5033391;28;20196;-84
2021/11/02 13:15:02;;;;;;;1.70;1.60;;;11.80;99.90;;;;;;5032424;28;20172;-84
2021/11/02 13:17:36;;;;;;;1.30;1.30;;;11.30;99.90;;;;;;5032204;28;20623;-84
2021/11/02 13:20:03;;;;;;;1.40;1.40;;;10.90;99.90;;;;;;5032258;28;20200;-84
2021/11/02 13:22:29;;;;;;;1.50;1.40;;;10.80;99.90;;;;;;5033437;28;20525;-85
2021/11/02 13:25:04;;;;;;;2.28;1.27;;;10.80;99.90;;;;;;5032072;28;20178;-84
2021/11/02 13:27:42;;;;;;;1.60;1.52;;;10.70;99.90;;;;;;5033724;28;20169;-84
2021/11/02 13:30:28;;;;;;;1.60;1.60;;;12.10;99.90;;;;;;5033392;28;20196;-84
2021/11/02 13:32:58;;;;;;;1.83;1.83;;;11.30;99.90;;;;;;5033077;28;20240;-84
2021/11/02 13:35:44;;;;;;;2.42;2.30;;;10.40;99.90;;;;;;5032000;28;20169;-84
2021/11/02 13:38:21;;;;;;;4.47;1.85;;;11.00;99.90;;;;;;5032027;28;20639;-84
2021/11/02 13:40:48;;;;;;;1.63;1.40;;;11.30;99.90;;;;;;5033229;28;20169;-84
2021/11/02 13:43:28;;;;;;;1.63;1.50;;;11.50;99.90;;;;;;5031940;28;20178;-84
2021/11/02 13:45:54;;;;;;;1.80;1.70;;;10.50;99.90;;;;;;5031934;28;20231;-84
2021/11/02 13:48:20;;;;;;;2.25;2.05;;;10.70;99.90;;;;;;5033213;28;20582;-84
2021/11/02 13:50:46;;;;;;;1.48;1.48;;;10.90;99.90;;;;;;5033172;28;20173;-84
2021/11/02 13:53:12;;;;;;;3.85;2.15;;;10.50;99.90;;;;;;5031947;28;20227;-84
2021/11/02 13:55:38;;;;;;;1.52;1.48;;;10.50;99.90;;;;;;5033050;28;20162;-84
2021/11/02 13:58:04;;;;;;;1.50;1.40;;;11.70;99.90;;;;;;5033086;28;20227;-84
2021/11/02 14:00:31;;;;;;;1.40;1.30;;;11.40;99.90;;;;;;5031626;28;20627;-83
2021/11/02 14:03:02;;;;;;;1.95;1.55;;;10.50;99.90;;;;;;5031875;28;20174;-83
2021/11/02 14:05:29;;;;;;;3.90;1.88;;;10.30;99.90;;;;;;5031943;28;20202;-84
2021/11/02 14:07:56;;;;;;;1.52;1.42;;;10.50;99.90;;;;;;5033071;28;20170;-84
2021/11/02 14:10:28;;;;;;;2.35;1.55;;;10.30;99.90;;;;;;5032999;28;20177;-83
2021/11/02 14:12:54;;;;;;;1.70;1.70;;;10.10;99.90;;;;;;5031555;28;20690;-84
2021/11/02 14:15:27;;;;;;;1.65;1.55;;;11.00;99.90;;;;;;5032940;28;20627;-84
2021/11/02 14:18:00;;;;;;;1.63;1.52;;;10.00;99.90;;;;;;5031615;28;20170;-84
2021/11/02 14:20:43;;;;;;;2.63;1.75;;;9.90;99.90;;;;;;5036751;28;20604;-84
2021/11/02 14:23:30;;;;;;;4.22;1.60;;;9.90;99.90;;;;;;5035253;28;20248;-83
2021/11/02 14:26:15;;;;;;;2.78;1.75;;;9.90;99.90;;;;;;5036737;28;20180;-83
2021/11/02 14:28:46;;;;;;;1.90;1.80;;;10.70;99.90;;;;;;5035289;28;20181;-84
2021/11/02 14:31:34;;;;;;;3.47;1.70;;;10.80;99.90;;;;;;5034964;28;20643;-84
2021/11/02 14:34:01;;;;;;;2.15;2.05;;;9.80;99.90;;;;;;5035154;28;20169;-84
2021/11/02 14:36:39;;;;;;;1.70;1.60;;;11.60;99.90;;;;;;5036315;28;20162;-84
2021/11/02 14:39:09;;;;;;;2.85;1.83;;;10.80;99.90;;;;;;5036272;28;20564;-84
